createdAt,value
2017-04-06T00:00:18.429Z,1033.7
2017-04-06T00:01:18.420Z,1033.7
2017-04-06T00:02:18.410Z,1033.7
2017-04-06T00:03:18.405Z,1033.78
2017-04-06T00:04:18.391Z,1033.84
2017-04-06T00:05:18.382Z,1033.78
2017-04-06T00:06:18.372Z,1033.75
2017-04-06T00:07:18.363Z,1033.76
2017-04-06T00:08:18.353Z,1033.77
2017-04-06T00:09:18.342Z,1033.81
2017-04-06T00:10:18.334Z,1033.83
2017-04-06T00:11:18.325Z,1033.87
2017-04-06T00:12:18.316Z,1033.88
2017-04-06T00:13:18.305Z,1033.84
2017-04-06T00:14:18.296Z,1033.87
2017-04-06T00:15:18.287Z,1033.89
2017-04-06T00:16:18.278Z,1033.86
2017-04-06T00:17:18.267Z,1033.91
2017-04-06T00:18:18.258Z,1033.9
2017-04-06T00:19:18.249Z,1033.92
2017-04-06T00:20:18.239Z,1033.85
2017-04-06T00:21:18.229Z,1033.9
2017-04-06T00:22:18.220Z,1033.8
2017-04-06T00:23:18.211Z,1033.81
2017-04-06T00:24:18.200Z,1033.8
2017-04-06T00:25:18.191Z,1033.78
2017-04-06T00:26:18.182Z,1033.81
2017-04-06T00:27:18.173Z,1033.81
2017-04-06T00:28:18.163Z,1033.86
2017-04-06T00:29:18.154Z,1033.91
2017-04-06T00:30:18.145Z,1033.92
2017-04-06T00:31:18.134Z,1034
2017-04-06T00:32:18.125Z,1033.95
2017-04-06T00:33:18.117Z,1033.98
2017-04-06T00:34:18.106Z,1034.02
2017-04-06T00:35:18.096Z,1034
2017-04-06T00:36:18.092Z,1034.04
2017-04-06T00:37:18.077Z,1033.94
2017-04-06T00:38:18.067Z,1033.93
2017-04-06T00:39:18.057Z,1033.92
2017-04-06T00:40:18.048Z,1033.92
2017-04-06T00:41:18.038Z,1033.99
2017-04-06T00:42:18.028Z,1033.97
2017-04-06T00:43:18.018Z,1034
2017-04-06T00:44:18.009Z,1033.95
2017-04-06T00:45:17.999Z,1033.99
2017-04-06T00:46:17.991Z,1034.03
2017-04-06T00:47:17.979Z,1034.03
2017-04-06T00:48:17.970Z,1034
2017-04-06T00:49:17.959Z,1033.99
2017-04-06T00:50:17.950Z,1034
2017-04-06T00:51:17.940Z,1034.03
2017-04-06T00:52:17.931Z,1033.94
2017-04-06T00:53:17.920Z,1033.9
2017-04-06T00:54:17.911Z,1033.93
2017-04-06T00:55:17.903Z,1033.9
2017-04-06T00:56:17.891Z,1033.88
2017-04-06T00:57:17.881Z,1033.94
2017-04-06T00:58:17.871Z,1033.87
2017-04-06T00:59:17.862Z,1033.87
2017-04-06T01:00:17.853Z,1033.92
2017-04-06T01:01:17.842Z,1033.85
2017-04-06T01:02:17.831Z,1033.94
2017-04-06T01:03:17.823Z,1033.97
2017-04-06T01:04:17.812Z,1033.95
2017-04-06T01:05:17.802Z,1034.04
2017-04-06T01:06:17.793Z,1033.99
2017-04-06T01:07:17.783Z,1034.02
2017-04-06T01:08:17.773Z,1034.04
2017-04-06T01:09:17.763Z,1034.05
2017-04-06T01:10:17.753Z,1034.07
2017-04-06T01:11:17.743Z,1034.11
2017-04-06T01:12:17.734Z,1034.15
2017-04-06T01:13:17.724Z,1034.07
2017-04-06T01:14:17.964Z,1034.12
2017-04-06T01:15:17.703Z,1034.06
2017-04-06T01:16:17.694Z,1034.11
2017-04-06T01:17:17.684Z,1034.14
2017-04-06T01:18:17.675Z,1034.2
2017-04-06T01:19:17.914Z,1034.2
2017-04-06T01:20:17.655Z,1034.19
2017-04-06T01:21:17.645Z,1034.17
2017-04-06T01:22:17.634Z,1034.22
2017-04-06T01:23:17.624Z,1034.17
2017-04-06T01:24:17.866Z,1034.22
2017-04-06T01:25:17.605Z,1034.17
2017-04-06T01:26:17.594Z,1034.16
2017-04-06T01:27:17.585Z,1034.14
2017-04-06T01:28:17.575Z,1034.2
2017-04-06T01:29:17.866Z,1034.2
2017-04-06T01:30:17.554Z,1034.13
2017-04-06T01:31:17.545Z,1034.14
2017-04-06T01:32:17.535Z,1034.12
2017-04-06T01:33:17.525Z,1034.1
2017-04-06T01:34:17.765Z,1033.99
2017-04-06T01:35:17.506Z,1034.06
2017-04-06T01:36:17.495Z,1034.09
2017-04-06T01:37:17.485Z,1034.05
2017-04-06T01:38:17.478Z,1033.97
2017-04-06T01:39:17.816Z,1034.05
2017-04-06T01:40:17.456Z,1033.95
2017-04-06T01:41:17.446Z,1034.02
2017-04-06T01:42:17.436Z,1034
2017-04-06T01:43:17.426Z,1033.98
2017-04-06T01:44:17.715Z,1034
2017-04-06T01:45:17.406Z,1034.06
2017-04-06T01:46:17.396Z,1034.02
2017-04-06T01:47:17.386Z,1034.03
2017-04-06T01:48:17.375Z,1034.1
2017-04-06T01:49:17.616Z,1033.98
2017-04-06T01:50:17.356Z,1034.02
2017-04-06T01:51:17.346Z,1034.03
2017-04-06T01:52:17.336Z,1034.05
2017-04-06T01:53:17.326Z,1034.05
2017-04-06T01:54:17.617Z,1034.04
2017-04-06T01:55:17.306Z,1033.99
2017-04-06T01:56:17.296Z,1034.01
2017-04-06T01:57:17.286Z,1034.03
2017-04-06T01:58:17.277Z,1034.03
2017-04-06T01:59:17.515Z,1034.06
2017-04-06T02:00:17.257Z,1034.08
2017-04-06T02:01:17.247Z,1034.06
2017-04-06T02:02:17.237Z,1034.09
2017-04-06T02:03:17.227Z,1034.19
2017-04-06T02:04:17.468Z,1034.15
2017-04-06T02:05:17.209Z,1034.19
2017-04-06T02:06:17.197Z,1034.15
2017-04-06T02:07:17.188Z,1034.16
2017-04-06T02:08:17.178Z,1034.04
2017-04-06T02:09:17.419Z,1034.17
2017-04-06T02:10:17.158Z,1034.24
2017-04-06T02:11:17.149Z,1034.15
2017-04-06T02:12:17.138Z,1034.19
2017-04-06T02:13:17.128Z,1034.15
2017-04-06T02:14:17.118Z,1034.17
2017-04-06T02:15:17.109Z,1034.14
2017-04-06T02:16:17.099Z,1034.19
2017-04-06T02:17:17.089Z,1034.21
2017-04-06T02:18:17.079Z,1034.15
2017-04-06T02:19:17.069Z,1034.24
2017-04-06T02:20:17.061Z,1034.18
2017-04-06T02:21:17.049Z,1034.23
2017-04-06T02:22:17.040Z,1034.27
2017-04-06T02:23:17.029Z,1034.28
2017-04-06T02:24:17.019Z,1034.27
2017-04-06T02:25:17.009Z,1034.33
2017-04-06T02:26:17.000Z,1034.37
2017-04-06T02:27:16.990Z,1034.4
2017-04-06T02:28:16.979Z,1034.36
2017-04-06T02:29:16.970Z,1034.42
2017-04-06T02:30:16.961Z,1034.34
2017-04-06T02:31:16.950Z,1034.36
2017-04-06T02:32:16.939Z,1034.35
2017-04-06T02:33:16.930Z,1034.42
2017-04-06T02:34:16.921Z,1034.39
2017-04-06T02:35:16.910Z,1034.47
2017-04-06T02:36:16.900Z,1034.43
2017-04-06T02:37:16.890Z,1034.49
2017-04-06T02:38:16.880Z,1034.48
2017-04-06T02:39:16.869Z,1034.59
2017-04-06T02:40:16.859Z,1034.5
2017-04-06T02:41:16.850Z,1034.57
2017-04-06T02:42:16.840Z,1034.66
2017-04-06T02:43:16.829Z,1034.69
2017-04-06T02:44:16.819Z,1034.78
2017-04-06T02:45:16.809Z,1034.87
2017-04-06T02:46:16.799Z,1034.97
2017-04-06T02:47:16.789Z,1035
2017-04-06T02:48:16.779Z,1035.07
2017-04-06T02:49:16.769Z,1035.1
2017-04-06T02:50:16.757Z,1035.12
2017-04-06T02:51:16.748Z,1035.23
2017-04-06T02:52:16.740Z,1035.26
2017-04-06T02:53:16.728Z,1035.34
2017-04-06T02:54:16.716Z,1035.38
2017-04-06T02:55:16.705Z,1035.49
2017-04-06T02:56:16.696Z,1035.49
2017-04-06T02:57:16.685Z,1035.51
2017-04-06T02:58:16.675Z,1035.6
2017-04-06T02:59:16.665Z,1035.64
2017-04-06T03:00:16.654Z,1035.66
2017-04-06T03:01:16.643Z,1035.8
2017-04-06T03:02:16.632Z,1035.78
2017-04-06T03:03:16.622Z,1035.86
2017-04-06T03:04:16.611Z,1035.89
2017-04-06T03:05:16.600Z,1035.95
2017-04-06T03:06:16.589Z,1035.94
2017-04-06T03:07:16.579Z,1035.99
2017-04-06T03:08:16.567Z,1035.96
2017-04-06T03:09:16.557Z,1035.99
2017-04-06T03:10:16.546Z,1035.99
2017-04-06T03:11:16.535Z,1036.02
2017-04-06T03:12:16.523Z,1036.09
2017-04-06T03:13:16.513Z,1036.08
2017-04-06T03:14:16.502Z,1036.08
2017-04-06T03:15:16.491Z,1036.09
2017-04-06T03:16:16.479Z,1036.12
2017-04-06T03:17:16.469Z,1036.17
2017-04-06T03:18:16.458Z,1036.1
2017-04-06T03:19:16.445Z,1036.14
2017-04-06T03:20:16.435Z,1036.16
2017-04-06T03:21:16.424Z,1036.19
2017-04-06T03:22:16.415Z,1036.24
2017-04-06T03:23:16.401Z,1036.24
2017-04-06T03:24:16.389Z,1036.32
2017-04-06T03:25:16.379Z,1036.31
2017-04-06T03:26:16.368Z,1036.35
2017-04-06T03:27:16.355Z,1036.34
2017-04-06T03:28:16.344Z,1036.36
2017-04-06T03:29:16.333Z,1036.49
2017-04-06T03:30:16.321Z,1036.46
2017-04-06T03:31:16.310Z,1036.43
2017-04-06T03:32:16.299Z,1036.45
2017-04-06T03:33:16.288Z,1036.51
2017-04-06T03:34:16.275Z,1036.54
2017-04-06T03:35:16.265Z,1036.51
2017-04-06T03:36:16.253Z,1036.5
2017-04-06T03:37:16.242Z,1036.52
2017-04-06T03:38:16.230Z,1036.53
2017-04-06T03:39:16.219Z,1036.52
2017-04-06T03:40:16.208Z,1036.54
2017-04-06T03:41:16.222Z,1036.61
2017-04-06T03:42:16.184Z,1036.58
2017-04-06T03:43:16.172Z,1036.61
2017-04-06T03:44:16.161Z,1036.65
2017-04-06T03:45:16.149Z,1036.64
2017-04-06T03:46:16.137Z,1036.63
2017-04-06T03:47:16.127Z,1036.68
2017-04-06T03:48:16.113Z,1036.65
2017-04-06T03:49:16.102Z,1036.69
2017-04-06T03:50:16.091Z,1036.68
2017-04-06T03:51:16.079Z,1036.67
2017-04-06T03:52:16.067Z,1036.68
2017-04-06T03:53:16.055Z,1036.63
2017-04-06T03:54:16.043Z,1036.64
2017-04-06T03:55:16.033Z,1036.64
2017-04-06T03:56:16.019Z,1036.69
2017-04-06T03:57:16.008Z,1036.68
2017-04-06T03:58:15.997Z,1036.69
2017-04-06T03:59:15.984Z,1036.69
2017-04-06T04:00:15.972Z,1036.7
2017-04-06T04:01:15.961Z,1036.7
2017-04-06T04:02:15.949Z,1036.76
2017-04-06T04:03:15.937Z,1036.73
2017-04-06T04:04:15.925Z,1036.76
2017-04-06T04:05:15.914Z,1036.78
2017-04-06T04:06:15.904Z,1036.78
2017-04-06T04:07:15.890Z,1036.75
2017-04-06T04:08:15.878Z,1036.76
2017-04-06T04:09:15.866Z,1036.81
2017-04-06T04:10:15.854Z,1036.8
2017-04-06T04:11:15.843Z,1036.75
2017-04-06T04:12:15.832Z,1036.71
2017-04-06T04:13:15.819Z,1036.76
2017-04-06T04:14:15.806Z,1036.71
2017-04-06T04:15:15.795Z,1036.69
2017-04-06T04:16:15.784Z,1036.61
2017-04-06T04:17:15.772Z,1036.57
2017-04-06T04:18:15.759Z,1036.53
2017-04-06T04:19:15.747Z,1036.43
2017-04-06T04:20:16.036Z,1036.42
2017-04-06T04:21:15.724Z,1036.35
2017-04-06T04:22:15.713Z,1036.23
2017-04-06T04:23:15.701Z,1036.23
2017-04-06T04:24:15.689Z,1036.15
2017-04-06T04:25:15.927Z,1036.17
2017-04-06T04:26:15.666Z,1036.1
2017-04-06T04:27:15.654Z,1036.02
2017-04-06T04:28:15.643Z,1036.09
2017-04-06T04:29:15.631Z,1036.09
2017-04-06T04:30:15.870Z,1036.08
2017-04-06T04:31:15.608Z,1036.02
2017-04-06T04:32:15.596Z,1036.04
2017-04-06T04:33:15.585Z,1035.93
2017-04-06T04:34:15.575Z,1035.94
2017-04-06T04:35:15.813Z,1035.94
2017-04-06T04:36:15.552Z,1035.93
2017-04-06T04:37:15.540Z,1035.91
2017-04-06T04:38:15.530Z,1035.95
2017-04-06T04:39:15.518Z,1035.92
2017-04-06T04:40:15.756Z,1035.98
2017-04-06T04:41:15.495Z,1035.98
2017-04-06T04:42:15.484Z,1035.97
2017-04-06T04:43:15.472Z,1036.04
2017-04-06T04:44:15.462Z,1036.09
2017-04-06T04:45:15.752Z,1036.11
2017-04-06T04:46:15.439Z,1036.1
2017-04-06T04:47:15.428Z,1036.16
2017-04-06T04:48:15.418Z,1036.19
2017-04-06T04:49:15.407Z,1036.17
2017-04-06T04:50:15.645Z,1036.23
2017-04-06T04:51:15.384Z,1036.21
2017-04-06T04:52:15.373Z,1036.18
2017-04-06T04:53:15.363Z,1036.21
2017-04-06T04:54:15.351Z,1036.25
2017-04-06T04:55:15.590Z,1036.23
2017-04-06T04:56:15.329Z,1036.14
2017-04-06T04:57:15.318Z,1036.11
2017-04-06T04:58:15.307Z,1036.12
2017-04-06T04:59:15.296Z,1036
2017-04-06T05:00:15.535Z,1035.88
2017-04-06T05:01:15.276Z,1035.85
2017-04-06T05:02:15.265Z,1035.9
2017-04-06T05:03:15.253Z,1035.89
2017-04-06T05:04:15.243Z,1035.9
2017-04-06T05:05:15.480Z,1035.85
2017-04-06T05:06:15.220Z,1035.86
2017-04-06T05:07:15.209Z,1035.82
2017-04-06T05:08:15.198Z,1035.76
2017-04-06T05:09:15.187Z,1035.71
2017-04-06T05:10:15.477Z,1035.62
2017-04-06T05:11:15.193Z,1035.63
2017-04-06T05:12:15.155Z,1035.59
2017-04-06T05:13:15.144Z,1035.54
2017-04-06T05:14:15.134Z,1035.43
2017-04-06T05:15:15.475Z,1035.29
2017-04-06T05:16:15.125Z,1035.31
2017-04-06T05:17:15.103Z,1035.31
2017-04-06T05:18:15.093Z,1035.27
2017-04-06T05:19:15.083Z,1035.32
2017-04-06T05:20:15.072Z,1035.32
2017-04-06T05:21:15.062Z,1035.27
2017-04-06T05:22:15.051Z,1035.36
2017-04-06T05:23:15.040Z,1035.41
2017-04-06T05:24:15.031Z,1035.49
2017-04-06T05:25:15.021Z,1035.57
2017-04-06T05:26:15.012Z,1035.57
2017-04-06T05:27:14.999Z,1035.48
2017-04-06T05:28:14.990Z,1035.51
2017-04-06T05:29:14.980Z,1035.52
2017-04-06T05:30:14.971Z,1035.42
2017-04-06T05:31:14.961Z,1035.36
2017-04-06T05:32:14.950Z,1035.35
2017-04-06T05:33:14.940Z,1035.37
2017-04-06T05:34:14.930Z,1035.33
2017-04-06T05:35:14.920Z,1035.24
2017-04-06T05:36:14.910Z,1035.19
2017-04-06T05:37:14.900Z,1035.1
2017-04-06T05:38:14.890Z,1034.97
2017-04-06T05:39:14.881Z,1034.86
2017-04-06T05:40:14.871Z,1034.89
2017-04-06T05:41:14.862Z,1034.8
2017-04-06T05:42:14.851Z,1034.92
2017-04-06T05:43:14.842Z,1034.9
2017-04-06T05:44:14.832Z,1034.89
2017-04-06T05:45:14.822Z,1034.89
2017-04-06T05:46:14.812Z,1034.91
2017-04-06T05:47:14.804Z,1034.95
2017-04-06T05:48:14.796Z,1034.71
2017-04-06T05:49:14.785Z,1034.56
2017-04-06T05:50:14.776Z,1034.36
2017-04-06T05:51:14.767Z,1033.97
2017-04-06T05:52:14.758Z,1033.43
2017-04-06T05:53:14.749Z,1033.04
2017-04-06T05:54:14.740Z,1033.09
2017-04-06T05:55:14.731Z,1033.4
2017-04-06T05:56:14.722Z,1033.55
2017-04-06T05:57:14.717Z,1033.6
2017-04-06T05:58:14.706Z,1033.41
2017-04-06T05:59:14.698Z,1033.4
2017-04-06T06:00:14.690Z,1033.25
2017-04-06T06:01:14.684Z,1032.9
2017-04-06T06:02:14.674Z,1032.47
2017-04-06T06:03:14.667Z,1032.23
2017-04-06T06:04:14.659Z,1032.22
2017-04-06T06:05:14.655Z,1031.92
2017-04-06T06:06:14.645Z,1031.5
2017-04-06T06:07:14.637Z,1031.88
2017-04-06T06:08:14.631Z,1032.27
2017-04-06T06:09:14.624Z,1032.76
2017-04-06T06:10:14.618Z,1033.11
2017-04-06T06:11:14.618Z,1033.38
2017-04-06T06:12:14.604Z,1033.44
2017-04-06T06:13:14.603Z,1033.36
2017-04-06T06:14:14.592Z,1033.1
2017-04-06T06:15:14.585Z,1033.17
2017-04-06T06:16:14.579Z,1033.12
2017-04-06T06:17:14.573Z,1032.98
2017-04-06T06:18:14.566Z,1032.92
2017-04-06T06:19:14.559Z,1032.5
2017-04-06T06:20:14.554Z,1031.88
2017-04-06T06:21:14.548Z,1031.52
2017-04-06T06:22:14.541Z,1031.53
2017-04-06T06:23:14.536Z,1032.08
2017-04-06T06:24:14.530Z,1032.37
2017-04-06T06:25:14.525Z,1032.58
2017-04-06T06:26:14.518Z,1032.52
2017-04-06T06:27:14.513Z,1032.7
2017-04-06T06:28:14.508Z,1032
2017-04-06T06:29:14.502Z,1031.18
2017-04-06T06:30:14.497Z,1030.64
2017-04-06T06:31:14.492Z,1030.46
2017-04-06T06:32:14.487Z,1030.46
2017-04-06T06:33:14.482Z,1030.66
2017-04-06T06:34:14.477Z,1030.23
2017-04-06T06:35:14.473Z,1030.55
2017-04-06T06:36:14.471Z,1031.2
2017-04-06T06:37:14.491Z,1030.45
2017-04-06T06:38:14.460Z,1030.37
2017-04-06T06:39:14.455Z,1030.6
2017-04-06T06:40:14.452Z,1029.96
2017-04-06T06:41:14.448Z,1029.82
2017-04-06T06:42:14.446Z,1029.63
2017-04-06T06:43:14.441Z,1029.8
2017-04-06T06:44:14.437Z,1029.35
2017-04-06T06:45:14.434Z,1029.13
2017-04-06T06:46:14.432Z,1028.92
2017-04-06T06:47:14.429Z,1028.53
2017-04-06T06:48:14.427Z,1028.91
2017-04-06T06:49:14.425Z,1029.23
2017-04-06T06:50:14.423Z,1029.69
2017-04-06T06:51:14.421Z,1030.22
2017-04-06T06:52:14.418Z,1029.65
2017-04-06T06:53:14.416Z,1029.08
2017-04-06T06:54:14.416Z,1028.65
2017-04-06T06:55:14.413Z,1028.39
2017-04-06T06:56:14.411Z,1028.16
2017-04-06T06:57:14.410Z,1028.13
2017-04-06T06:58:14.408Z,1027.99
2017-04-06T06:59:14.407Z,1027.74
2017-04-06T07:00:14.407Z,1027.54
2017-04-06T07:01:14.406Z,1027.92
2017-04-06T07:02:14.405Z,1028.27
2017-04-06T07:03:14.405Z,1028.45
2017-04-06T07:04:14.405Z,1028.48
2017-04-06T07:05:14.405Z,1028.54
2017-04-06T07:06:14.405Z,1028.42
2017-04-06T07:07:14.405Z,1028.43
2017-04-06T07:08:14.406Z,1028.81
2017-04-06T07:09:14.405Z,1028.66
2017-04-06T07:10:14.405Z,1027.83
2017-04-06T07:11:14.406Z,1028.19
2017-04-06T07:12:14.408Z,1028.51
2017-04-06T07:13:14.406Z,1028.88
2017-04-06T07:14:14.407Z,1029.95
2017-04-06T07:15:14.408Z,1029.38
2017-04-06T07:16:14.409Z,1028.95
2017-04-06T07:17:14.408Z,1028.47
2017-04-06T07:18:14.409Z,1027.23
2017-04-06T07:19:14.411Z,1028.01
2017-04-06T07:20:14.410Z,1028.67
2017-04-06T07:21:14.411Z,1028.34
2017-04-06T07:22:14.412Z,1028.45
2017-04-06T07:23:14.413Z,1028.02
2017-04-06T07:24:14.413Z,1027.74
2017-04-06T07:25:14.415Z,1027.33
2017-04-06T07:26:14.417Z,1027.52
2017-04-06T07:27:14.418Z,1028.09
2017-04-06T07:28:14.419Z,1027.77
2017-04-06T07:29:14.420Z,1028.09
2017-04-06T07:30:14.422Z,1027.85
2017-04-06T07:31:14.424Z,1027.47
2017-04-06T07:32:14.424Z,1028.58
2017-04-06T07:33:14.426Z,1028.17
2017-04-06T07:34:14.428Z,1028.06
2017-04-06T07:35:14.429Z,1027.96
2017-04-06T07:36:14.431Z,1027.92
2017-04-06T07:37:14.433Z,1027.79
2017-04-06T07:38:14.434Z,1027.58
2017-04-06T07:39:14.440Z,1027.54
2017-04-06T07:40:14.437Z,1027.42
2017-04-06T07:41:14.441Z,1027.37
2017-04-06T07:42:14.441Z,1027.69
2017-04-06T07:43:14.444Z,1027.08
2017-04-06T07:44:14.446Z,1027.84
2017-04-06T07:45:14.449Z,1028.22
2017-04-06T07:46:14.449Z,1028.83
2017-04-06T07:47:14.451Z,1029.23
2017-04-06T07:48:14.453Z,1029.46
2017-04-06T07:49:14.455Z,1028.93
2017-04-06T07:50:14.457Z,1028.84
2017-04-06T07:51:14.458Z,1028.9
2017-04-06T07:52:14.459Z,1028.21
2017-04-06T07:53:14.460Z,1028.37
2017-04-06T07:54:14.463Z,1028.01
2017-04-06T07:55:14.463Z,1027.73
2017-04-06T07:56:14.464Z,1027.53
2017-04-06T07:57:14.464Z,1027.63
2017-04-06T07:58:14.467Z,1027.62
2017-04-06T07:59:14.469Z,1027.4
2017-04-06T08:00:14.471Z,1027.29
2017-04-06T08:01:14.471Z,1027.23
2017-04-06T08:02:14.473Z,1027.33
2017-04-06T08:03:14.476Z,1027.36
2017-04-06T08:04:14.478Z,1026.96
2017-04-06T08:05:14.479Z,1027.01
2017-04-06T08:06:14.481Z,1027.03
2017-04-06T08:07:14.484Z,1026.94
2017-04-06T08:08:14.485Z,1027.09
2017-04-06T08:09:14.488Z,1027.48
2017-04-06T08:10:14.490Z,1028.24
2017-04-06T08:11:14.493Z,1027.86
2017-04-06T08:12:14.494Z,1027.62
2017-04-06T08:13:14.496Z,1027.31
2017-04-06T08:14:14.498Z,1027.05
2017-04-06T08:15:14.501Z,1026.99
2017-04-06T08:16:14.502Z,1027.14
2017-04-06T08:17:14.505Z,1027.07
2017-04-06T08:18:14.508Z,1027.09
2017-04-06T08:19:14.510Z,1027.3
2017-04-06T08:20:14.512Z,1027.87
2017-04-06T08:21:14.516Z,1028.66
2017-04-06T08:22:14.516Z,1029.31
2017-04-06T08:23:14.518Z,1029.86
2017-04-06T08:24:14.520Z,1030.45
2017-04-06T08:25:14.522Z,1030.97
2017-04-06T08:26:14.523Z,1031.4
2017-04-06T08:27:14.524Z,1031.84
2017-04-06T08:28:14.523Z,1032.29
2017-04-06T08:29:14.524Z,1032.52
2017-04-06T08:30:14.523Z,1032.79
2017-04-06T08:31:14.525Z,1032.92
2017-04-06T08:32:14.522Z,1033.07
2017-04-06T08:33:14.519Z,1033.25
2017-04-06T08:34:14.518Z,1033.41
2017-04-06T08:35:14.516Z,1033.57
2017-04-06T08:36:14.515Z,1033.78
2017-04-06T08:37:14.511Z,1033.82
2017-04-06T08:38:14.509Z,1034
2017-04-06T08:39:14.506Z,1034.07
2017-04-06T08:40:14.504Z,1034.17
2017-04-06T08:41:14.500Z,1034.25
2017-04-06T08:42:14.497Z,1034.23
2017-04-06T08:43:14.494Z,1034.27
2017-04-06T08:44:14.489Z,1034.34
2017-04-06T08:45:14.486Z,1034.47
2017-04-06T08:46:14.482Z,1034.57
2017-04-06T08:47:14.479Z,1034.71
2017-04-06T08:48:14.473Z,1034.72
2017-04-06T08:49:14.470Z,1034.77
2017-04-06T08:50:14.465Z,1034.92
2017-04-06T08:51:14.461Z,1034.84
2017-04-06T08:52:14.456Z,1034.91
2017-04-06T08:53:14.451Z,1034.87
2017-04-06T08:54:14.447Z,1034.92
2017-04-06T08:55:14.442Z,1034.88
2017-04-06T08:56:14.687Z,1034.93
2017-04-06T08:57:14.432Z,1035.01
2017-04-06T08:58:14.428Z,1035.06
2017-04-06T08:59:14.422Z,1035.01
2017-04-06T09:00:14.417Z,1035.03
2017-04-06T09:01:14.712Z,1035.09
2017-04-06T09:02:14.407Z,1035.17
2017-04-06T09:03:14.401Z,1035.22
2017-04-06T09:04:14.396Z,1035.15
2017-04-06T09:05:14.391Z,1035.17
2017-04-06T09:06:14.635Z,1035.27
2017-04-06T09:07:14.379Z,1035.37
2017-04-06T09:08:14.373Z,1035.43
2017-04-06T09:09:14.369Z,1035.51
2017-04-06T09:10:14.364Z,1035.53
2017-04-06T09:11:14.607Z,1035.54
2017-04-06T09:12:14.352Z,1035.51
2017-04-06T09:13:14.346Z,1035.48
2017-04-06T09:14:14.340Z,1035.45
2017-04-06T09:15:14.335Z,1035.4
2017-04-06T09:16:14.630Z,1035.47
2017-04-06T09:17:14.323Z,1035.36
2017-04-06T09:18:14.317Z,1035.3
2017-04-06T09:19:14.312Z,1035.12
2017-04-06T09:20:14.306Z,1035.01
2017-04-06T09:21:14.551Z,1034.77
2017-04-06T09:22:14.295Z,1034.82
2017-04-06T09:23:14.288Z,1034.85
2017-04-06T09:24:14.284Z,1034.97
2017-04-06T09:25:14.277Z,1035.09
2017-04-06T09:26:14.572Z,1035.06
2017-04-06T09:27:14.267Z,1035.13
2017-04-06T09:28:14.260Z,1035.21
2017-04-06T09:29:14.256Z,1035.19
2017-04-06T09:30:14.250Z,1035.12
2017-04-06T09:31:14.495Z,1035.15
2017-04-06T09:32:14.238Z,1035.17
2017-04-06T09:33:14.236Z,1035.11
2017-04-06T09:34:14.227Z,1035.05
2017-04-06T09:35:14.222Z,1035.15
2017-04-06T09:36:14.566Z,1035.37
2017-04-06T09:37:14.211Z,1035.31
2017-04-06T09:38:14.205Z,1035.31
2017-04-06T09:39:14.199Z,1035.39
2017-04-06T09:40:14.193Z,1035.37
2017-04-06T09:41:14.439Z,1035.3
2017-04-06T09:42:14.184Z,1035.27
2017-04-06T09:43:14.177Z,1035.22
2017-04-06T09:44:14.172Z,1035.27
2017-04-06T09:45:14.167Z,1035.14
2017-04-06T09:46:14.412Z,1035.09
2017-04-06T09:47:14.155Z,1034.9
2017-04-06T09:48:14.151Z,1034.79
2017-04-06T09:49:14.145Z,1034.85
2017-04-06T09:50:14.140Z,1034.85
2017-04-06T09:51:14.384Z,1034.84
2017-04-06T09:52:14.129Z,1034.86
2017-04-06T09:53:14.124Z,1034.82
2017-04-06T09:54:14.118Z,1034.74
2017-04-06T09:55:14.113Z,1034.63
2017-04-06T09:56:14.108Z,1034.6
2017-04-06T09:57:14.103Z,1034.55
2017-04-06T09:58:14.097Z,1034.5
2017-04-06T09:59:14.092Z,1034.4
2017-04-06T10:00:14.088Z,1034.62
2017-04-06T10:01:14.082Z,1034.68
2017-04-06T10:02:14.077Z,1034.6
2017-04-06T10:03:14.072Z,1034.57
2017-04-06T10:04:14.066Z,1034.49
2017-04-06T10:05:14.061Z,1034.4
2017-04-06T10:06:14.058Z,1034.36
2017-04-06T10:07:14.052Z,1034.45
2017-04-06T10:08:14.046Z,1034.36
2017-04-06T10:09:14.041Z,1034.39
2017-04-06T10:10:14.037Z,1034.41
2017-04-06T10:11:14.032Z,1034.45
2017-04-06T10:12:14.026Z,1034.44
2017-04-06T10:13:14.021Z,1034.53
2017-04-06T10:14:14.017Z,1034.54
2017-04-06T10:15:14.012Z,1034.52
2017-04-06T10:16:14.007Z,1034.68
2017-04-06T10:17:14.003Z,1034.6
2017-04-06T10:18:13.998Z,1034.74
2017-04-06T10:19:13.992Z,1034.62
2017-04-06T10:20:13.988Z,1034.67
2017-04-06T10:21:13.983Z,1034.54
2017-04-06T10:22:13.978Z,1034.44
2017-04-06T10:23:13.972Z,1034.41
2017-04-06T10:24:13.968Z,1034.38
2017-04-06T10:25:13.964Z,1034.47
2017-04-06T10:26:13.959Z,1034.43
2017-04-06T10:27:13.953Z,1034.43
2017-04-06T10:28:13.949Z,1034.41
2017-04-06T10:29:13.949Z,1034.28
2017-04-06T10:30:13.939Z,1034.16
2017-04-06T10:31:13.934Z,1034.08
2017-04-06T10:32:13.930Z,1034.03
2017-04-06T10:33:13.925Z,1033.98
2017-04-06T10:34:13.921Z,1033.9
2017-04-06T10:35:13.916Z,1034.1
2017-04-06T10:36:13.912Z,1034.32
2017-04-06T10:37:13.911Z,1034.42
2017-04-06T10:38:13.902Z,1034.59
2017-04-06T10:39:13.898Z,1034.47
2017-04-06T10:40:13.893Z,1034.39
2017-04-06T10:41:13.888Z,1034.35
2017-04-06T10:42:13.884Z,1034.27
2017-04-06T10:43:13.880Z,1034.19
2017-04-06T10:44:13.905Z,1034.08
2017-04-06T10:45:13.871Z,1034.04
2017-04-06T10:46:13.867Z,1033.96
2017-04-06T10:47:13.863Z,1033.86
2017-04-06T10:48:13.858Z,1033.81
2017-04-06T10:49:13.852Z,1033.83
2017-04-06T10:50:13.848Z,1033.79
2017-04-06T10:51:13.846Z,1033.9
2017-04-06T10:52:13.840Z,1033.95
2017-04-06T10:53:13.836Z,1034.02
2017-04-06T10:54:13.832Z,1034.19
2017-04-06T10:55:13.828Z,1034.42
2017-04-06T10:56:13.823Z,1034.4
2017-04-06T10:57:13.820Z,1034.44
2017-04-06T10:58:13.815Z,1034.41
2017-04-06T10:59:13.811Z,1034.35
2017-04-06T11:00:13.806Z,1034.3
2017-04-06T11:01:13.803Z,1034.3
2017-04-06T11:02:13.797Z,1034.29
2017-04-06T11:03:13.793Z,1034.43
2017-04-06T11:04:13.788Z,1034.65
2017-04-06T11:05:13.784Z,1034.82
2017-04-06T11:06:13.780Z,1034.66
2017-04-06T11:07:13.775Z,1034.71
2017-04-06T11:08:13.770Z,1034.76
2017-04-06T11:09:13.766Z,1034.76
2017-04-06T11:10:13.762Z,1034.76
2017-04-06T11:11:13.757Z,1034.72
2017-04-06T11:12:13.761Z,1034.68
2017-04-06T11:13:13.748Z,1034.64
2017-04-06T11:14:13.743Z,1034.67
2017-04-06T11:15:13.738Z,1034.6
2017-04-06T11:16:13.734Z,1034.56
2017-04-06T11:17:13.730Z,1034.39
2017-04-06T11:18:13.724Z,1034.35
2017-04-06T11:19:13.720Z,1034.28
2017-04-06T11:20:13.716Z,1034.19
2017-04-06T11:21:13.711Z,1034.2
2017-04-06T11:22:13.706Z,1034.22
2017-04-06T11:23:13.701Z,1034.2
2017-04-06T11:24:13.697Z,1034.29
2017-04-06T11:25:13.692Z,1034.25
2017-04-06T11:26:13.688Z,1034.28
2017-04-06T11:27:13.683Z,1034.35
2017-04-06T11:28:13.680Z,1034.49
2017-04-06T11:29:13.674Z,1034.45
2017-04-06T11:30:13.670Z,1034.41
2017-04-06T11:31:13.666Z,1034.4
2017-04-06T11:32:13.661Z,1034.49
2017-04-06T11:33:13.657Z,1034.55
2017-04-06T11:34:13.653Z,1034.51
2017-04-06T11:35:13.649Z,1034.65
2017-04-06T11:36:13.643Z,1034.53
2017-04-06T11:37:13.639Z,1034.37
2017-04-06T11:38:13.637Z,1034.11
2017-04-06T11:39:13.631Z,1033.93
2017-04-06T11:40:13.626Z,1034.06
2017-04-06T11:41:13.621Z,1034.05
2017-04-06T11:42:13.618Z,1034.13
2017-04-06T11:43:13.612Z,1034.21
2017-04-06T11:44:13.609Z,1034.18
2017-04-06T11:45:13.606Z,1034.18
2017-04-06T11:46:13.600Z,1034.14
2017-04-06T11:47:13.798Z,1034.12
2017-04-06T11:48:13.592Z,1033.95
2017-04-06T11:49:13.587Z,1033.74
2017-04-06T11:50:13.582Z,1033.69
2017-04-06T11:51:13.578Z,1033.67
2017-04-06T11:52:13.574Z,1033.58
2017-04-06T11:53:13.570Z,1033.57
2017-04-06T11:54:13.565Z,1033.57
2017-04-06T11:55:13.562Z,1033.6
2017-04-06T11:56:13.558Z,1033.43
2017-04-06T11:57:13.554Z,1033.36
2017-04-06T11:58:13.549Z,1033.25
2017-04-06T11:59:13.545Z,1033.3
2017-04-06T12:00:13.542Z,1033.43
2017-04-06T12:01:13.539Z,1033.43
2017-04-06T12:02:13.534Z,1033.41
2017-04-06T12:03:13.531Z,1033.6
2017-04-06T12:04:13.527Z,1033.64
2017-04-06T12:05:13.522Z,1033.43
2017-04-06T12:06:13.520Z,1033.57
2017-04-06T12:07:13.515Z,1033.42
2017-04-06T12:08:13.512Z,1033.42